sensor_id;sensor_type;location;lat;lon;timestamp;pressure;altitude;pressure_sealevel;temperature;humidity
40838;BME280;29632;49.168;9.848;2023-04-09T00:01:17;97457.28;;;13.20;42.69
40838;BME280;29632;49.168;9.848;2023-04-09T00:03:43;97452.19;;;13.19;42.48
40838;BME280;29632;49.168;9.848;2023-04-09T00:06:10;97451.50;;;13.17;42.66
40838;BME280;29632;49.168;9.848;2023-04-09T00:08:35;97443.66;;;13.17;42.64
40838;BME280;29632;49.168;9.848;2023-04-09T00:11:01;97449.72;;;13.17;42.72
40838;BME280;29632;49.168;9.848;2023-04-09T00:13:27;97448.06;;;13.16;42.80
40838;BME280;29632;49.168;9.848;2023-04-09T00:15:52;97451.66;;;13.15;42.29
40838;BME280;29632;49.168;9.848;2023-04-09T00:18:18;97439.56;;;13.14;42.69
40838;BME280;29632;49.168;9.848;2023-04-09T00:20:44;97442.16;;;13.14;42.63
40838;BME280;29632;49.168;9.848;2023-04-09T00:23:09;97449.16;;;13.14;42.56
40838;BME280;29632;49.168;9.848;2023-04-09T00:25:35;97448.34;;;13.13;42.43
40838;BME280;29632;49.168;9.848;2023-04-09T00:28:01;97446.72;;;13.12;42.42
40838;BME280;29632;49.168;9.848;2023-04-09T00:30:30;97446.88;;;13.11;42.50
40838;BME280;29632;49.168;9.848;2023-04-09T00:32:56;97441.78;;;13.09;43.08
40838;BME280;29632;49.168;9.848;2023-04-09T00:35:21;97446.16;;;13.09;42.72
40838;BME280;29632;49.168;9.848;2023-04-09T00:37:47;97450.56;;;13.08;42.71
40838;BME280;29632;49.168;9.848;2023-04-09T00:40:13;97445.34;;;13.08;42.37
40838;BME280;29632;49.168;9.848;2023-04-09T00:42:39;97442.06;;;13.06;42.69
40838;BME280;29632;49.168;9.848;2023-04-09T00:45:05;97448.94;;;13.07;42.86
40838;BME280;29632;49.168;9.848;2023-04-09T00:47:31;97446.47;;;13.06;42.76
40838;BME280;29632;49.168;9.848;2023-04-09T00:49:57;97443.84;;;13.06;42.87
40838;BME280;29632;49.168;9.848;2023-04-09T00:52:23;97442.19;;;13.04;42.73
40838;BME280;29632;49.168;9.848;2023-04-09T00:54:49;97444.81;;;13.04;42.73
40838;BME280;29632;49.168;9.848;2023-04-09T00:57:16;97448.25;;;13.05;42.52
40838;BME280;29632;49.168;9.848;2023-04-09T00:59:42;97444.00;;;13.04;42.74
40838;BME280;29632;49.168;9.848;2023-04-09T01:02:08;97449.22;;;13.04;42.90
40838;BME280;29632;49.168;9.848;2023-04-09T01:04:33;97450.03;;;13.04;42.61
40838;BME280;29632;49.168;9.848;2023-04-09T01:07:19;97451.03;;;13.03;42.88
40838;BME280;29632;49.168;9.848;2023-04-09T01:10:00;97455.41;;;13.03;42.82
40838;BME280;29632;49.168;9.848;2023-04-09T01:12:35;97448.56;;;13.02;42.71
40838;BME280;29632;49.168;9.848;2023-04-09T01:15:08;97447.69;;;13.01;42.77
40838;BME280;29632;49.168;9.848;2023-04-09T01:17:37;97448.81;;;12.99;42.59
40838;BME280;29632;49.168;9.848;2023-04-09T01:20:22;97443.59;;;12.99;42.62
40838;BME280;29632;49.168;9.848;2023-04-09T01:23:01;97448.81;;;12.99;42.71
40838;BME280;29632;49.168;9.848;2023-04-09T01:28:17;97448.16;;;12.97;42.65
40838;BME280;29632;49.168;9.848;2023-04-09T01:30:47;97449.09;;;12.96;42.63
40838;BME280;29632;49.168;9.848;2023-04-09T01:33:14;97442.25;;;12.95;42.74
40838;BME280;29632;49.168;9.848;2023-04-09T01:35:45;97442.38;;;12.93;42.90
40838;BME280;29632;49.168;9.848;2023-04-09T01:38:12;97439.91;;;12.92;42.78
40838;BME280;29632;49.168;9.848;2023-04-09T01:40:39;97442.66;;;12.90;42.91
40838;BME280;29632;49.168;9.848;2023-04-09T01:43:06;97440.19;;;12.89;43.20
40838;BME280;29632;49.168;9.848;2023-04-09T01:45:33;97442.94;;;12.87;42.83
40838;BME280;29632;49.168;9.848;2023-04-09T01:47:58;97436.22;;;12.84;42.89
40838;BME280;29632;49.168;9.848;2023-04-09T01:50:24;97428.50;;;12.83;42.66
40838;BME280;29632;49.168;9.848;2023-04-09T01:52:50;97431.28;;;12.81;42.83
40838;BME280;29632;49.168;9.848;2023-04-09T01:55:16;97433.19;;;12.79;42.97
40838;BME280;29632;49.168;9.848;2023-04-09T01:57:41;97430.72;;;12.78;43.20
40838;BME280;29632;49.168;9.848;2023-04-09T02:00:07;97431.69;;;12.77;42.91
40838;BME280;29632;49.168;9.848;2023-04-09T02:02:44;97434.44;;;12.75;42.99
40838;BME280;29632;49.168;9.848;2023-04-09T02:05:11;97430.19;;;12.74;43.27
40838;BME280;29632;49.168;9.848;2023-04-09T02:07:44;97434.56;;;12.74;43.20
40838;BME280;29632;49.168;9.848;2023-04-09T02:10:12;97432.94;;;12.73;43.11
40838;BME280;29632;49.168;9.848;2023-04-09T02:12:41;97438.31;;;12.71;42.91
40838;BME280;29632;49.168;9.848;2023-04-09T02:15:07;97438.44;;;12.70;43.05
40838;BME280;29632;49.168;9.848;2023-04-09T02:17:33;97440.38;;;12.68;43.15
40838;BME280;29632;49.168;9.848;2023-04-09T02:19:59;97438.72;;;12.66;43.33
40838;BME280;29632;49.168;9.848;2023-04-09T02:22:25;97436.25;;;12.65;42.78
40838;BME280;29632;49.168;9.848;2023-04-09T02:24:50;97434.63;;;12.64;42.93
40838;BME280;29632;49.168;9.848;2023-04-09T02:27:16;97434.75;;;12.62;43.45
40838;BME280;29632;49.168;9.848;2023-04-09T02:29:42;97431.19;;;12.63;43.38
40838;BME280;29632;49.168;9.848;2023-04-09T02:32:07;97440.66;;;12.64;43.09
40838;BME280;29632;49.168;9.848;2023-04-09T02:34:33;97435.44;;;12.64;43.06
40838;BME280;29632;49.168;9.848;2023-04-09T02:36:59;97433.63;;;12.65;43.36
40838;BME280;29632;49.168;9.848;2023-04-09T02:39:24;97430.19;;;12.64;43.21
40838;BME280;29632;49.168;9.848;2023-04-09T02:41:51;97436.41;;;12.63;43.17
40838;BME280;29632;49.168;9.848;2023-04-09T02:44:17;97433.78;;;12.63;43.17
40838;BME280;29632;49.168;9.848;2023-04-09T02:46:45;97437.34;;;12.62;42.98
40838;BME280;29632;49.168;9.848;2023-04-09T02:49:11;97436.53;;;12.62;42.97
40838;BME280;29632;49.168;9.848;2023-04-09T02:51:36;97434.06;;;12.60;43.08
40838;BME280;29632;49.168;9.848;2023-04-09T02:54:02;97432.41;;;12.59;43.11
40838;BME280;29632;49.168;9.848;2023-04-09T02:56:28;97440.25;;;12.59;43.14
40838;BME280;29632;49.168;9.848;2023-04-09T02:58:53;97437.78;;;12.58;42.97
40838;BME280;29632;49.168;9.848;2023-04-09T03:01:19;97441.38;;;12.57;43.18
40838;BME280;29632;49.168;9.848;2023-04-09T03:03:45;97438.75;;;12.57;43.39
40838;BME280;29632;49.168;9.848;2023-04-09T03:06:11;97435.47;;;12.55;43.41
40838;BME280;29632;49.168;9.848;2023-04-09T03:08:37;97431.31;;;12.52;43.44
40838;BME280;29632;49.168;9.848;2023-04-09T03:11:03;97427.75;;;12.53;43.27
40838;BME280;29632;49.168;9.848;2023-04-09T03:13:28;97425.16;;;12.53;43.32
40838;BME280;29632;49.168;9.848;2023-04-09T03:15:54;97432.13;;;12.53;43.11
40838;BME280;29632;49.168;9.848;2023-04-09T03:18:20;97428.72;;;12.52;43.30
40838;BME280;29632;49.168;9.848;2023-04-09T03:20:45;97429.69;;;12.51;43.38
40838;BME280;29632;49.168;9.848;2023-04-09T03:23:11;97426.25;;;12.51;43.31
40838;BME280;29632;49.168;9.848;2023-04-09T03:25:37;97425.41;;;12.50;43.19
40838;BME280;29632;49.168;9.848;2023-04-09T03:28:02;97427.91;;;12.52;43.36
40838;BME280;29632;49.168;9.848;2023-04-09T03:30:29;97425.28;;;12.52;43.40
40838;BME280;29632;49.168;9.848;2023-04-09T03:32:54;97421.00;;;12.51;43.41
40838;BME280;29632;49.168;9.848;2023-04-09T03:35:20;97419.38;;;12.50;43.10
40838;BME280;29632;49.168;9.848;2023-04-09T03:37:46;97422.94;;;12.49;43.14
40838;BME280;29632;49.168;9.848;2023-04-09T03:40:12;97424.75;;;12.48;43.49
40838;BME280;29632;49.168;9.848;2023-04-09T03:42:37;97421.28;;;12.47;43.56
40838;BME280;29632;49.168;9.848;2023-04-09T03:45:04;97426.50;;;12.47;43.25
40838;BME280;29632;49.168;9.848;2023-04-09T03:47:30;97421.28;;;12.47;43.55
40838;BME280;29632;49.168;9.848;2023-04-09T03:49:55;97430.91;;;12.47;43.16
40838;BME280;29632;49.168;9.848;2023-04-09T03:52:21;97425.69;;;12.47;43.12
40838;BME280;29632;49.168;9.848;2023-04-09T03:54:46;97432.59;;;12.48;43.50
40838;BME280;29632;49.168;9.848;2023-04-09T03:57:12;97427.34;;;12.48;43.32
40838;BME280;29632;49.168;9.848;2023-04-09T03:59:38;97433.53;;;12.47;43.15
40838;BME280;29632;49.168;9.848;2023-04-09T04:02:03;97427.34;;;12.48;43.45
40838;BME280;29632;49.168;9.848;2023-04-09T04:04:29;97433.66;;;12.45;43.46
40838;BME280;29632;49.168;9.848;2023-04-09T04:06:55;97423.22;;;12.45;43.54
40838;BME280;29632;49.168;9.848;2023-04-09T04:09:20;97424.19;;;12.44;43.31
40838;BME280;29632;49.168;9.848;2023-04-09T04:11:46;97424.19;;;12.44;43.52
40838;BME280;29632;49.168;9.848;2023-04-09T04:14:12;97428.59;;;12.44;43.39
40838;BME280;29632;49.168;9.848;2023-04-09T04:16:39;97425.00;;;12.45;43.58
40838;BME280;29632;49.168;9.848;2023-04-09T04:19:05;97423.34;;;12.44;43.30
40838;BME280;29632;49.168;9.848;2023-04-09T04:21:31;97434.66;;;12.44;43.57
40838;BME280;29632;49.168;9.848;2023-04-09T04:23:57;97425.97;;;12.44;43.62
40838;BME280;29632;49.168;9.848;2023-04-09T04:26:22;97431.19;;;12.44;43.58
40838;BME280;29632;49.168;9.848;2023-04-09T04:28:48;97431.19;;;12.44;43.72
40838;BME280;29632;49.168;9.848;2023-04-09T04:31:13;97436.59;;;12.42;43.74
40838;BME280;29632;49.168;9.848;2023-04-09T04:33:40;97428.75;;;12.42;43.38
40838;BME280;29632;49.168;9.848;2023-04-09T04:36:08;97433.00;;;12.43;43.54
40838;BME280;29632;49.168;9.848;2023-04-09T04:38:34;97432.84;;;12.45;43.77
40838;BME280;29632;49.168;9.848;2023-04-09T04:41:01;97438.91;;;12.45;43.46
40838;BME280;29632;49.168;9.848;2023-04-09T04:43:26;97437.13;;;12.46;43.62
40838;BME280;29632;49.168;9.848;2023-04-09T04:45:52;97441.38;;;12.47;43.55
40838;BME280;29632;49.168;9.848;2023-04-09T04:48:18;97438.75;;;12.47;43.38
40838;BME280;29632;49.168;9.848;2023-04-09T04:50:44;97445.66;;;12.48;43.49
40838;BME280;29632;49.168;9.848;2023-04-09T04:53:09;97454.28;;;12.49;43.72
40838;BME280;29632;49.168;9.848;2023-04-09T04:55:35;97450.03;;;12.47;43.60
40838;BME280;29632;49.168;9.848;2023-04-09T04:58:01;97444.97;;;12.46;43.69
40838;BME280;29632;49.168;9.848;2023-04-09T05:00:27;97446.72;;;12.45;43.42
40838;BME280;29632;49.168;9.848;2023-04-09T05:02:52;97445.78;;;12.46;43.39
40838;BME280;29632;49.168;9.848;2023-04-09T05:05:18;97453.63;;;12.46;43.33
40838;BME280;29632;49.168;9.848;2023-04-09T05:07:44;97446.59;;;12.47;43.39
40838;BME280;29632;49.168;9.848;2023-04-09T05:10:09;97444.78;;;12.47;43.68
40838;BME280;29632;49.168;9.848;2023-04-09T05:12:35;97447.28;;;12.49;43.45
40838;BME280;29632;49.168;9.848;2023-04-09T05:15:01;97449.75;;;12.51;43.29
40838;BME280;29632;49.168;9.848;2023-04-09T05:17:26;97445.38;;;12.51;43.60
40838;BME280;29632;49.168;9.848;2023-04-09T05:19:52;97451.28;;;12.53;43.62
40838;BME280;29632;49.168;9.848;2023-04-09T05:22:18;97451.13;;;12.55;43.62
40838;BME280;29632;49.168;9.848;2023-04-09T05:24:44;97454.28;;;12.58;43.34
40838;BME280;29632;49.168;9.848;2023-04-09T05:27:09;97448.09;;;12.59;43.24
40838;BME280;29632;49.168;9.848;2023-04-09T05:29:35;97453.03;;;12.62;43.62
40838;BME280;29632;49.168;9.848;2023-04-09T05:32:01;97452.78;;;12.65;43.20
40838;BME280;29632;49.168;9.848;2023-04-09T05:34:26;97454.25;;;12.68;43.39
40838;BME280;29632;49.168;9.848;2023-04-09T05:36:52;97444.22;;;12.73;43.30
40838;BME280;29632;49.168;9.848;2023-04-09T05:39:18;97450.13;;;12.75;43.22
40838;BME280;29632;49.168;9.848;2023-04-09T05:41:44;97456.72;;;12.79;43.62
40838;BME280;29632;49.168;9.848;2023-04-09T05:44:11;97457.41;;;12.81;43.59
40838;BME280;29632;49.168;9.848;2023-04-09T05:46:37;97462.50;;;12.83;43.30
40838;BME280;29632;49.168;9.848;2023-04-09T05:49:03;97459.75;;;12.84;43.51
40838;BME280;29632;49.168;9.848;2023-04-09T05:51:28;97463.03;;;12.87;43.44
40838;BME280;29632;49.168;9.848;2023-04-09T05:53:54;97458.50;;;12.89;43.38
40838;BME280;29632;49.168;9.848;2023-04-09T05:56:20;97462.59;;;12.91;43.39
40838;BME280;29632;49.168;9.848;2023-04-09T05:58:48;97466.59;;;12.95;43.45
40838;BME280;29632;49.168;9.848;2023-04-09T06:01:14;97470.69;;;12.98;43.13
40838;BME280;29632;49.168;9.848;2023-04-09T06:03:39;97472.09;;;13.02;43.25
40838;BME280;29632;49.168;9.848;2023-04-09T06:06:05;97475.38;;;13.04;43.45
40838;BME280;29632;49.168;9.848;2023-04-09T06:08:31;97475.09;;;13.07;43.21
40838;BME280;29632;49.168;9.848;2023-04-09T06:10:57;97475.91;;;13.08;43.10
40838;BME280;29632;49.168;9.848;2023-04-09T06:13:22;97479.19;;;13.10;43.30
40838;BME280;29632;49.168;9.848;2023-04-09T06:15:48;97482.50;;;13.12;43.07
40838;BME280;29632;49.168;9.848;2023-04-09T06:18:14;97473.69;;;13.13;43.05
40838;BME280;29632;49.168;9.848;2023-04-09T06:20:40;97478.66;;;13.16;43.58
40838;BME280;29632;49.168;9.848;2023-04-09T06:23:06;97479.31;;;13.18;43.24
40838;BME280;29632;49.168;9.848;2023-04-09T06:25:32;97480.81;;;13.20;43.15
40838;BME280;29632;49.168;9.848;2023-04-09T06:27:57;97477.91;;;13.23;43.49
40838;BME280;29632;49.168;9.848;2023-04-09T06:30:23;97478.59;;;13.26;43.05
40838;BME280;29632;49.168;9.848;2023-04-09T06:32:49;97484.50;;;13.28;43.36
40838;BME280;29632;49.168;9.848;2023-04-09T06:35:15;97487.13;;;13.28;43.54
40838;BME280;29632;49.168;9.848;2023-04-09T06:37:41;97489.72;;;13.28;43.20
40838;BME280;29632;49.168;9.848;2023-04-09T06:40:07;97491.25;;;13.30;43.17
40838;BME280;29632;49.168;9.848;2023-04-09T06:42:33;97490.28;;;13.31;43.42
40838;BME280;29632;49.168;9.848;2023-04-09T06:44:58;97496.47;;;13.30;43.14
40838;BME280;29632;49.168;9.848;2023-04-09T06:47:24;97492.91;;;13.31;43.60
40838;BME280;29632;49.168;9.848;2023-04-09T06:49:50;97494.97;;;13.28;43.08
40838;BME280;29632;49.168;9.848;2023-04-09T06:52:16;97499.53;;;13.26;43.45
40838;BME280;29632;49.168;9.848;2023-04-09T06:54:41;97500.66;;;13.23;43.35
40838;BME280;29632;49.168;9.848;2023-04-09T06:57:07;97501.59;;;13.22;43.30
40838;BME280;29632;49.168;9.848;2023-04-09T06:59:33;97502.59;;;13.21;43.51
40838;BME280;29632;49.168;9.848;2023-04-09T07:01:59;97504.88;;;13.24;43.28
40838;BME280;29632;49.168;9.848;2023-04-09T07:04:25;97496.63;;;13.29;43.27
40838;BME280;29632;49.168;9.848;2023-04-09T07:06:51;97506.69;;;13.33;43.54
40838;BME280;29632;49.168;9.848;2023-04-09T07:09:19;97508.59;;;13.41;43.48
40838;BME280;29632;49.168;9.848;2023-04-09T07:11:45;97501.13;;;13.46;43.29
40838;BME280;29632;49.168;9.848;2023-04-09T07:14:10;97505.78;;;13.52;43.34
40838;BME280;29632;49.168;9.848;2023-04-09T07:16:36;97511.41;;;13.57;43.42
40838;BME280;29632;49.168;9.848;2023-04-09T07:19:02;97509.16;;;13.63;43.43
40838;BME280;29632;49.168;9.848;2023-04-09T07:21:27;97509.03;;;13.64;43.30
40838;BME280;29632;49.168;9.848;2023-04-09T07:23:53;97515.09;;;13.65;43.14
40838;BME280;29632;49.168;9.848;2023-04-09T07:26:19;97514.94;;;13.66;43.30
40838;BME280;29632;49.168;9.848;2023-04-09T07:28:44;97512.03;;;13.69;42.97
40838;BME280;29632;49.168;9.848;2023-04-09T07:31:10;97516.31;;;13.70;43.24
40838;BME280;29632;49.168;9.848;2023-04-09T07:33:36;97516.97;;;13.72;42.92
40838;BME280;29632;49.168;9.848;2023-04-09T07:36:02;97516.38;;;13.78;43.14
40838;BME280;29632;49.168;9.848;2023-04-09T07:38:28;97528.09;;;13.84;43.02
40838;BME280;29632;49.168;9.848;2023-04-09T07:40:54;97522.53;;;13.87;43.16
40838;BME280;29632;49.168;9.848;2023-04-09T07:43:19;97523.78;;;13.93;43.25
40838;BME280;29632;49.168;9.848;2023-04-09T07:45:50;97526.78;;;13.98;43.09
40838;BME280;29632;49.168;9.848;2023-04-09T07:48:16;97526.16;;;14.04;43.15
40838;BME280;29632;49.168;9.848;2023-04-09T07:50:42;97526.78;;;14.16;42.87
40838;BME280;29632;49.168;9.848;2023-04-09T07:53:09;97526.88;;;14.24;42.79
40838;BME280;29632;49.168;9.848;2023-04-09T07:55:36;97527.94;;;14.31;42.74
40838;BME280;29632;49.168;9.848;2023-04-09T07:58:02;97523.44;;;14.42;42.60
40838;BME280;29632;49.168;9.848;2023-04-09T08:00:29;97522.53;;;14.51;42.63
40838;BME280;29632;49.168;9.848;2023-04-09T08:02:54;97527.72;;;14.61;42.59
40838;BME280;29632;49.168;9.848;2023-04-09T08:05:22;97519.91;;;14.69;42.58
40838;BME280;29632;49.168;9.848;2023-04-09T08:07:49;97513.09;;;14.76;42.74
40838;BME280;29632;49.168;9.848;2023-04-09T08:10:15;97509.22;;;14.80;42.69
40838;BME280;29632;49.168;9.848;2023-04-09T08:12:41;97523.81;;;14.83;42.54
40838;BME280;29632;49.168;9.848;2023-04-09T08:15:08;97512.56;;;14.90;42.79
40838;BME280;29632;49.168;9.848;2023-04-09T08:17:34;97516.88;;;15.00;42.60
40838;BME280;29632;49.168;9.848;2023-04-09T08:20:03;97516.09;;;15.07;42.41
40838;BME280;29632;49.168;9.848;2023-04-09T08:22:29;97512.22;;;15.12;42.60
40838;BME280;29632;49.168;9.848;2023-04-09T08:24:55;97517.13;;;15.15;42.25
40838;BME280;29632;49.168;9.848;2023-04-09T08:27:21;97518.63;;;15.17;42.64
40838;BME280;29632;49.168;9.848;2023-04-09T08:29:47;97506.69;;;15.23;42.74
40838;BME280;29632;49.168;9.848;2023-04-09T08:32:13;97506.06;;;15.29;42.30
40838;BME280;29632;49.168;9.848;2023-04-09T08:34:38;97513.00;;;15.38;42.49
40838;BME280;29632;49.168;9.848;2023-04-09T08:37:04;97511.56;;;15.44;42.28
40838;BME280;29632;49.168;9.848;2023-04-09T08:39:30;97506.19;;;15.54;42.21
40838;BME280;29632;49.168;9.848;2023-04-09T08:41:57;97517.56;;;15.62;42.12
40838;BME280;29632;49.168;9.848;2023-04-09T08:44:26;97508.72;;;15.72;41.95
40838;BME280;29632;49.168;9.848;2023-04-09T08:46:52;97515.34;;;15.84;42.23
40838;BME280;29632;49.168;9.848;2023-04-09T08:49:19;97517.88;;;15.94;42.05
40838;BME280;29632;49.168;9.848;2023-04-09T08:51:48;97513.59;;;16.01;42.02
40838;BME280;29632;49.168;9.848;2023-04-09T08:54:16;97510.16;;;16.09;42.06
40838;BME280;29632;49.168;9.848;2023-04-09T08:56:45;97522.34;;;16.18;42.01
40838;BME280;29632;49.168;9.848;2023-04-09T08:59:14;97511.84;;;16.26;42.00
40838;BME280;29632;49.168;9.848;2023-04-09T09:01:41;97518.09;;;16.33;41.78
40838;BME280;29632;49.168;9.848;2023-04-09T09:04:08;97522.72;;;16.39;42.05
40838;BME280;29632;49.168;9.848;2023-04-09T09:06:38;97520.41;;;16.45;41.71
40838;BME280;29632;49.168;9.848;2023-04-09T09:09:07;97523.22;;;16.51;41.87
40838;BME280;29632;49.168;9.848;2023-04-09T09:11:34;97519.28;;;16.55;41.91
40838;BME280;29632;49.168;9.848;2023-04-09T09:14:05;97517.13;;;16.59;41.96
40838;BME280;29632;49.168;9.848;2023-04-09T09:16:32;97524.34;;;16.65;41.94
40838;BME280;29632;49.168;9.848;2023-04-09T09:19:00;97523.72;;;16.71;41.72
40838;BME280;29632;49.168;9.848;2023-04-09T09:21:27;97515.81;;;16.79;41.78
40838;BME280;29632;49.168;9.848;2023-04-09T09:23:53;97514.38;;;16.85;41.67
40838;BME280;29632;49.168;9.848;2023-04-09T09:26:26;97514.69;;;16.90;41.62
40838;BME280;29632;49.168;9.848;2023-04-09T09:28:53;97520.94;;;16.97;41.65
40838;BME280;29632;49.168;9.848;2023-04-09T09:31:20;97507.13;;;17.04;41.49
40838;BME280;29632;49.168;9.848;2023-04-09T09:33:46;97514.81;;;17.05;41.50
40838;BME280;29632;49.168;9.848;2023-04-09T09:36:13;97515.50;;;17.07;41.44
40838;BME280;29632;49.168;9.848;2023-04-09T09:38:51;97520.56;;;17.09;41.56
40838;BME280;29632;49.168;9.848;2023-04-09T09:41:18;97516.66;;;17.05;41.46
40838;BME280;29632;49.168;9.848;2023-04-09T09:43:44;97510.03;;;17.09;41.51
40838;BME280;29632;49.168;9.848;2023-04-09T09:46:10;97515.47;;;17.15;41.47
40838;BME280;29632;49.168;9.848;2023-04-09T09:48:36;97520.41;;;17.18;41.76
40838;BME280;29632;49.168;9.848;2023-04-09T09:51:02;97517.94;;;17.17;41.27
40838;BME280;29632;49.168;9.848;2023-04-09T09:53:33;97517.13;;;17.16;41.48
40838;BME280;29632;49.168;9.848;2023-04-09T09:56:00;97516.63;;;17.21;41.39
40838;BME280;29632;49.168;9.848;2023-04-09T09:58:36;97517.28;;;17.23;41.43
40838;BME280;29632;49.168;9.848;2023-04-09T10:01:07;97513.47;;;17.26;41.51
40838;BME280;29632;49.168;9.848;2023-04-09T10:03:35;97508.03;;;17.27;41.12
40838;BME280;29632;49.168;9.848;2023-04-09T10:06:02;97501.44;;;17.31;41.19
40838;BME280;29632;49.168;9.848;2023-04-09T10:08:29;97504.22;;;17.38;41.21
40838;BME280;29632;49.168;9.848;2023-04-09T10:10:55;97507.81;;;17.45;41.23
40838;BME280;29632;49.168;9.848;2023-04-09T10:13:27;97505.34;;;17.52;41.14
40838;BME280;29632;49.168;9.848;2023-04-09T10:15:55;97508.13;;;17.59;41.06
40838;BME280;29632;49.168;9.848;2023-04-09T10:18:22;97510.38;;;17.70;40.81
40838;BME280;29632;49.168;9.848;2023-04-09T10:23:39;97502.91;;;17.90;40.70
40838;BME280;29632;49.168;9.848;2023-04-09T10:26:06;97509.75;;;17.99;40.58
40838;BME280;29632;49.168;9.848;2023-04-09T10:28:32;97498.53;;;18.05;40.66
40838;BME280;29632;49.168;9.848;2023-04-09T10:30:58;97498.00;;;18.10;40.69
40838;BME280;29632;49.168;9.848;2023-04-09T10:33:25;97500.31;;;18.13;40.61
40838;BME280;29632;49.168;9.848;2023-04-09T10:35:59;97499.97;;;18.16;40.46
40838;BME280;29632;49.168;9.848;2023-04-09T10:38:36;97497.31;;;18.16;40.48
40838;BME280;29632;49.168;9.848;2023-04-09T10:41:06;97497.97;;;18.18;40.63
40838;BME280;29632;49.168;9.848;2023-04-09T10:43:34;97496.59;;;18.22;40.39
40838;BME280;29632;49.168;9.848;2023-04-09T10:46:00;97498.38;;;18.30;40.53
40838;BME280;29632;49.168;9.848;2023-04-09T10:48:31;97496.69;;;18.37;40.40
40838;BME280;29632;49.168;9.848;2023-04-09T10:50:57;97490.53;;;18.45;40.52
40838;BME280;29632;49.168;9.848;2023-04-09T10:53:24;97494.28;;;18.51;40.33
40838;BME280;29632;49.168;9.848;2023-04-09T10:55:51;97493.03;;;18.61;39.96
40838;BME280;29632;49.168;9.848;2023-04-09T10:58:18;97491.50;;;18.67;40.06
40838;BME280;29632;49.168;9.848;2023-04-09T11:00:48;97487.16;;;18.74;39.72
40838;BME280;29632;49.168;9.848;2023-04-09T11:05:50;97482.31;;;18.86;39.89
40838;BME280;29632;49.168;9.848;2023-04-09T11:08:17;97475.47;;;18.92;39.69
40838;BME280;29632;49.168;9.848;2023-04-09T11:10:44;97479.59;;;18.94;39.85
40838;BME280;29632;49.168;9.848;2023-04-09T11:13:11;97471.97;;;18.99;40.01
40838;BME280;29632;49.168;9.848;2023-04-09T11:15:37;97469.41;;;19.06;39.69
40838;BME280;29632;49.168;9.848;2023-04-09T11:18:03;97470.78;;;19.17;39.71
40838;BME280;29632;49.168;9.848;2023-04-09T11:20:33;97460.13;;;19.25;39.48
40838;BME280;29632;49.168;9.848;2023-04-09T11:22:58;97468.94;;;19.32;39.63
40838;BME280;29632;49.168;9.848;2023-04-09T11:25:30;97466.47;;;19.31;39.83
40838;BME280;29632;49.168;9.848;2023-04-09T11:27:56;97469.34;;;19.29;39.70
40838;BME280;29632;49.168;9.848;2023-04-09T11:30:22;97459.75;;;19.28;39.72
40838;BME280;29632;49.168;9.848;2023-04-09T11:32:48;97459.00;;;19.34;39.66
40838;BME280;29632;49.168;9.848;2023-04-09T11:35:16;97456.47;;;19.41;39.78
40838;BME280;29632;49.168;9.848;2023-04-09T11:37:42;97454.94;;;19.47;39.62
40838;BME280;29632;49.168;9.848;2023-04-09T11:40:18;97462.28;;;19.51;39.53
40838;BME280;29632;49.168;9.848;2023-04-09T11:42:45;97463.38;;;19.57;39.57
40838;BME280;29632;49.168;9.848;2023-04-09T11:45:14;97468.75;;;19.63;39.52
40838;BME280;29632;49.168;9.848;2023-04-09T11:47:40;97463.72;;;19.69;39.40
40838;BME280;29632;49.168;9.848;2023-04-09T11:50:07;97475.59;;;19.73;39.21
40838;BME280;29632;49.168;9.848;2023-04-09T11:52:33;97466.38;;;19.69;39.35
40838;BME280;29632;49.168;9.848;2023-04-09T11:55:01;97470.22;;;19.66;39.36
40838;BME280;29632;49.168;9.848;2023-04-09T11:57:41;97471.84;;;19.67;39.33
40838;BME280;29632;49.168;9.848;2023-04-09T12:00:11;97468.81;;;19.70;39.19
40838;BME280;29632;49.168;9.848;2023-04-09T12:02:39;97465.66;;;19.75;39.10
40838;BME280;29632;49.168;9.848;2023-04-09T12:05:07;97461.28;;;19.82;38.99
40838;BME280;29632;49.168;9.848;2023-04-09T12:07:33;97467.28;;;19.91;39.27
40838;BME280;29632;49.168;9.848;2023-04-09T12:10:06;97466.94;;;20.00;38.95
40838;BME280;29632;49.168;9.848;2023-04-09T12:12:47;97469.03;;;20.05;39.02
40838;BME280;29632;49.168;9.848;2023-04-09T12:15:23;97461.75;;;20.07;39.13
40838;BME280;29632;49.168;9.848;2023-04-09T12:17:52;97460.38;;;20.11;38.97
40838;BME280;29632;49.168;9.848;2023-04-09T12:20:37;97458.97;;;20.15;39.16
40838;BME280;29632;49.168;9.848;2023-04-09T12:23:07;97452.88;;;20.15;39.08
40838;BME280;29632;49.168;9.848;2023-04-09T12:25:37;97456.34;;;20.15;39.20
40838;BME280;29632;49.168;9.848;2023-04-09T12:28:04;97460.16;;;20.13;38.92
40838;BME280;29632;49.168;9.848;2023-04-09T12:30:30;97455.81;;;20.05;39.22
40838;BME280;29632;49.168;9.848;2023-04-09T12:32:56;97463.31;;;20.02;39.03
40838;BME280;29632;49.168;9.848;2023-04-09T12:35:22;97467.78;;;20.01;38.94
40838;BME280;29632;49.168;9.848;2023-04-09T12:37:48;97463.75;;;20.05;38.98
40838;BME280;29632;49.168;9.848;2023-04-09T12:40:14;97451.78;;;20.09;38.98
40838;BME280;29632;49.168;9.848;2023-04-09T12:42:43;97456.28;;;20.09;38.95
40838;BME280;29632;49.168;9.848;2023-04-09T12:45:10;97470.88;;;20.05;39.08
40838;BME280;29632;49.168;9.848;2023-04-09T12:47:36;97457.13;;;19.94;38.95
40838;BME280;29632;49.168;9.848;2023-04-09T12:50:02;97467.63;;;19.88;39.25
40838;BME280;29632;49.168;9.848;2023-04-09T12:52:29;97470.28;;;19.88;39.25
40838;BME280;29632;49.168;9.848;2023-04-09T12:54:55;97460.69;;;19.87;38.94
40838;BME280;29632;49.168;9.848;2023-04-09T12:57:20;97457.25;;;19.86;39.01
40838;BME280;29632;49.168;9.848;2023-04-09T12:59:46;97458.53;;;19.90;38.90
40838;BME280;29632;49.168;9.848;2023-04-09T13:02:12;97455.94;;;19.97;38.85
40838;BME280;29632;49.168;9.848;2023-04-09T13:04:37;97447.09;;;20.05;38.90
40838;BME280;29632;49.168;9.848;2023-04-09T13:07:03;97447.97;;;20.12;38.80